Terminal Aerodrome Forecast
Issued by NWS

Home | Current Version | Previous Version | Text Only | Print | Product List | Glossary On
Versions: 1 2 3 4 5 6 7 8 9 10 11 12 13 14 15 16 17 18
000
FTUS46 KLOX 172300 RRA
TAFPMD
TAF
KPMD 172350Z 1800/1824 29015G20KT P6SM SCT050 SCT090 OVC140
     FM180300 27007KT P6SM SCT090 OVC140
     FM181400 23008KT P6SM SCT070 BKN110
     FM181600 VRB03KT P6SM VCSH SCT050 BKN090
     FM182200 32008KT P6SM SCT025 SCT050=

USA.gov is the U.S. government's official web portal to all federal, state and local government web resources and services.